createdAt,value
2023-05-15T00:02:51.191Z,96581.31
2023-05-15T00:07:45.978Z,96577.72
2023-05-15T00:12:39.273Z,96571.34
2023-05-15T00:17:32.597Z,96569.53
2023-05-15T00:22:26.296Z,96564.69
2023-05-15T00:27:21.058Z,96566.47
2023-05-15T00:32:14.401Z,96565.38
2023-05-15T00:37:08.556Z,96554.84
2023-05-15T00:42:03.739Z,96553.72
2023-05-15T00:47:01.657Z,96556.16
2023-05-15T00:51:55.076Z,96558.09
2023-05-15T00:56:51.985Z,96556.13
2023-05-15T01:01:45.415Z,96546.34
2023-05-15T01:06:40.175Z,96553.09
2023-05-15T01:11:36.996Z,96546.91
2023-05-15T01:16:31.032Z,96556.72
2023-05-15T01:22:20.239Z,96553.78
2023-05-15T01:27:24.322Z,96548.34
2023-05-15T01:32:25.217Z,96554.31
2023-05-15T01:37:24.497Z,96551.94
2023-05-15T01:42:23.012Z,96560.66
2023-05-15T01:47:21.520Z,96555.47
2023-05-15T01:52:19.994Z,96554.78
2023-05-15T01:57:15.592Z,96557.13
2023-05-15T02:02:13.560Z,96552.78
2023-05-15T02:07:08.613Z,96553.78
2023-05-15T02:12:03.553Z,96552.13
2023-05-15T02:16:57.019Z,96549.72
2023-05-15T02:21:51.726Z,96550.97
2023-05-15T02:27:01.837Z,96546.84
2023-05-15T02:32:09.430Z,96548.22
2023-05-15T02:37:09.313Z,96543.78
2023-05-15T02:42:03.734Z,96550.75
2023-05-15T02:46:57.645Z,96552.41
2023-05-15T02:51:51.910Z,96555.31
2023-05-15T02:56:46.522Z,96546.25
2023-05-15T03:01:39.853Z,96538.06
2023-05-15T03:06:33.165Z,96534.88
2023-05-15T03:11:26.562Z,96530.19
2023-05-15T03:16:21.386Z,96532.88
2023-05-15T03:21:14.794Z,96538.91
2023-05-15T03:26:08.073Z,96536.09
2023-05-15T03:31:01.413Z,96533.47
2023-05-15T03:35:56.065Z,96533.94
2023-05-15T03:40:51.144Z,96529.44
2023-05-15T03:45:45.149Z,96522.13
2023-05-15T03:50:39.283Z,96530.81
2023-05-15T03:55:34.286Z,96534.06
2023-05-15T04:00:27.717Z,96541.00
2023-05-15T04:05:21.910Z,96534.22
2023-05-15T04:10:15.485Z,96535.78
2023-05-15T04:15:22.311Z,96540.88
2023-05-15T04:20:19.029Z,96542.91
2023-05-15T04:25:14.622Z,96534.69
2023-05-15T04:30:09.717Z,96535.81
2023-05-15T04:35:06.417Z,96543.00
2023-05-15T04:39:59.724Z,96539.16
2023-05-15T04:44:53.510Z,96552.16
2023-05-15T04:49:47.811Z,96556.69
2023-05-15T04:54:42.969Z,96564.03
2023-05-15T04:59:36.237Z,96573.72
2023-05-15T05:04:29.686Z,96561.91
2023-05-15T05:09:23.055Z,96566.88
2023-05-15T05:14:17.872Z,96570.91
2023-05-15T05:19:11.283Z,96563.59
2023-05-15T05:24:04.897Z,96571.06
2023-05-15T05:28:58.258Z,96585.22
2023-05-15T05:33:52.952Z,96585.03
2023-05-15T05:38:46.182Z,96584.13
2023-05-15T05:43:39.532Z,96588.91
2023-05-15T05:48:32.924Z,96589.44
2023-05-15T05:53:27.725Z,96585.56
2023-05-15T05:58:25.417Z,96586.19
2023-05-15T06:03:19.689Z,96597.38
2023-05-15T06:08:13.087Z,96583.50
2023-05-15T06:13:07.950Z,96594.50
2023-05-15T06:18:01.280Z,96593.25
2023-05-15T06:22:54.597Z,96589.38
2023-05-15T06:27:48.145Z,96582.03
2023-05-15T06:32:43.631Z,96581.81
2023-05-15T06:37:38.252Z,96578.25
2023-05-15T06:42:31.608Z,96566.75
2023-05-15T06:47:25.171Z,96579.91
2023-05-15T06:52:19.921Z,96582.28
2023-05-15T06:57:13.224Z,96589.50
2023-05-15T07:02:06.828Z,96585.34
2023-05-15T07:07:00.286Z,96591.59
2023-05-15T07:11:55.018Z,96603.16
2023-05-15T07:16:48.386Z,96612.56
2023-05-15T07:21:43.335Z,96613.53
2023-05-15T07:26:43.896Z,96604.53
2023-05-15T07:31:45.597Z,96614.88
2023-05-15T07:36:38.941Z,96612.31
2023-05-15T07:41:33.704Z,96607.47
2023-05-15T07:46:27.268Z,96611.91
2023-05-15T07:51:21.949Z,96606.78
2023-05-15T07:56:15.242Z,96604.44
2023-05-15T08:01:08.677Z,96610.84
2023-05-15T08:06:01.987Z,96598.38
2023-05-15T08:10:56.647Z,96607.22
2023-05-15T08:15:49.983Z,96602.94
2023-05-15T08:20:43.599Z,96601.28
2023-05-15T08:25:37.040Z,96612.63
2023-05-15T08:30:31.850Z,96610.66
2023-05-15T08:35:25.343Z,96613.97
2023-05-15T08:40:25.663Z,96614.50
2023-05-15T08:45:29.236Z,96623.22
2023-05-15T08:50:25.846Z,96611.75
2023-05-15T08:55:19.382Z,96613.47
2023-05-15T09:00:15.191Z,96603.09
2023-05-15T09:05:10.692Z,96608.31
2023-05-15T09:10:06.703Z,96604.63
2023-05-15T09:15:12.279Z,96616.97
2023-05-15T09:20:08.049Z,96618.72
2023-05-15T09:25:03.223Z,96615.84
2023-05-15T09:30:09.859Z,96638.75
2023-05-15T09:35:03.113Z,96633.53
2023-05-15T09:39:56.700Z,96628.56
2023-05-15T09:44:50.077Z,96620.94
2023-05-15T09:49:47.476Z,96626.47
2023-05-15T09:54:41.067Z,96626.72
2023-05-15T09:59:34.344Z,96617.72
2023-05-15T10:04:27.788Z,96616.72
2023-05-15T10:09:22.439Z,96616.34
2023-05-15T10:14:21.023Z,96607.34
2023-05-15T10:19:15.185Z,96603.06
2023-05-15T10:24:09.751Z,96586.69
2023-05-15T10:29:09.650Z,96586.19
2023-05-15T10:34:03.697Z,96601.78
2023-05-15T10:38:59.195Z,96608.00
2023-05-15T10:43:55.389Z,96614.94
2023-05-15T10:48:50.545Z,96614.50
2023-05-15T10:53:44.649Z,96610.84
2023-05-15T10:58:37.981Z,96611.16
2023-05-15T11:03:48.787Z,96607.88
2023-05-15T11:08:45.183Z,96598.03
2023-05-15T11:14:15.364Z,96585.50
2023-05-15T11:19:23.936Z,96591.75
2023-05-15T11:24:18.652Z,96582.50
2023-05-15T11:29:21.407Z,96598.06
2023-05-15T11:34:15.136Z,96588.66
2023-05-15T11:39:12.623Z,96581.19
2023-05-15T11:44:07.299Z,96584.91
2023-05-15T11:49:01.273Z,96590.78
2023-05-15T11:53:56.543Z,96573.59
2023-05-15T11:58:51.456Z,96568.91
2023-05-15T12:03:50.061Z,96579.72
2023-05-15T12:08:43.965Z,96590.56
2023-05-15T12:13:37.861Z,96585.38
2023-05-15T12:18:32.913Z,96581.13
2023-05-15T12:23:29.551Z,96582.28
2023-05-15T12:28:23.643Z,96581.50
2023-05-15T12:33:17.184Z,96588.19
2023-05-15T12:38:16.524Z,96584.19
2023-05-15T12:43:12.499Z,96570.13
2023-05-15T12:48:07.981Z,96581.59
2023-05-15T12:53:05.149Z,96586.13
2023-05-15T12:58:00.274Z,96589.16
2023-05-15T13:02:58.035Z,96585.59
2023-05-15T13:07:52.419Z,96592.53
2023-05-15T13:12:47.476Z,96596.44
2023-05-15T13:17:41.804Z,96600.25
2023-05-15T13:22:36.495Z,96602.25
2023-05-15T13:27:29.795Z,96602.16
2023-05-15T13:32:24.197Z,96595.84
2023-05-15T13:37:17.588Z,96605.81
2023-05-15T13:42:12.248Z,96602.56
2023-05-15T13:47:06.163Z,96595.31
2023-05-15T13:51:59.550Z,96607.41
2023-05-15T13:56:52.814Z,96613.66
2023-05-15T14:01:48.232Z,96612.44
2023-05-15T14:06:41.619Z,96604.53
2023-05-15T14:11:35.769Z,96594.50
2023-05-15T14:16:29.107Z,96613.50
2023-05-15T14:21:24.310Z,96604.41
2023-05-15T14:26:17.691Z,96591.75
2023-05-15T14:31:11.876Z,96593.19
2023-05-15T14:36:05.888Z,96599.22
2023-05-15T14:41:00.700Z,96594.72
2023-05-15T14:45:54.024Z,96583.91
2023-05-15T14:50:47.360Z,96590.47
2023-05-15T14:55:40.643Z,96589.72
2023-05-15T15:00:35.454Z,96585.63
2023-05-15T15:05:28.764Z,96574.66
2023-05-15T15:10:22.036Z,96570.66
2023-05-15T15:15:15.381Z,96565.38
2023-05-15T15:20:12.188Z,96561.75
2023-05-15T15:25:06.671Z,96565.72
2023-05-15T15:30:00.227Z,96570.53
2023-05-15T15:34:53.458Z,96581.41
2023-05-15T15:39:48.210Z,96571.78
2023-05-15T15:44:41.517Z,96577.44
2023-05-15T15:49:34.846Z,96579.09
2023-05-15T15:54:29.029Z,96584.91
2023-05-15T15:59:23.697Z,96582.50
2023-05-15T16:04:17.264Z,96576.03
2023-05-15T16:09:10.648Z,96566.41
2023-05-15T16:14:04.136Z,96550.94
2023-05-15T16:18:58.878Z,96552.56
2023-05-15T16:23:52.218Z,96556.50
2023-05-15T16:28:45.558Z,96540.81
2023-05-15T16:33:38.880Z,96537.13
2023-05-15T16:38:33.586Z,96559.03
2023-05-15T16:43:26.885Z,96571.25
2023-05-15T16:48:20.141Z,96570.56
2023-05-15T16:53:14.938Z,96578.53
2023-05-15T16:58:09.705Z,96579.69
2023-05-15T17:03:03.800Z,96589.72
2023-05-15T17:07:57.156Z,96606.78
2023-05-15T17:12:50.505Z,96609.50
2023-05-15T17:17:45.215Z,96604.56
2023-05-15T17:22:38.753Z,96600.69
2023-05-15T17:27:32.379Z,96600.53
2023-05-15T17:32:25.879Z,96608.59
2023-05-15T17:37:20.792Z,96594.31
2023-05-15T17:42:14.122Z,96600.59
2023-05-15T17:47:08.543Z,96586.72
2023-05-15T17:52:01.955Z,96575.47
2023-05-15T17:56:56.616Z,96580.53
2023-05-15T18:01:50.002Z,96589.56
2023-05-15T18:06:43.361Z,96589.19
2023-05-15T18:11:36.716Z,96583.81
2023-05-15T18:16:32.841Z,96598.28
2023-05-15T18:21:26.396Z,96596.22
2023-05-15T18:26:19.669Z,96604.03
2023-05-15T18:31:12.984Z,96595.28
2023-05-15T18:36:08.417Z,96608.47
2023-05-15T18:41:05.211Z,96613.06
2023-05-15T18:46:01.346Z,96612.38
2023-05-15T18:50:55.684Z,96621.59
2023-05-15T18:55:50.469Z,96631.69
2023-05-15T19:00:43.928Z,96621.81
2023-05-15T19:05:41.928Z,96633.78
2023-05-15T19:10:35.260Z,96637.72
2023-05-15T19:15:29.898Z,96640.22
2023-05-15T19:20:23.260Z,96635.25
2023-05-15T19:25:16.630Z,96632.72
2023-05-15T19:30:11.330Z,96637.16
2023-05-15T19:35:06.842Z,96638.41
2023-05-15T19:40:00.200Z,96653.53
2023-05-15T19:44:53.496Z,96648.56
2023-05-15T19:49:46.848Z,96652.03
2023-05-15T19:55:03.708Z,96643.97
2023-05-15T20:00:01.202Z,96640.34
2023-05-15T20:04:54.465Z,96647.03
2023-05-15T20:09:52.112Z,96635.09
2023-05-15T20:14:52.304Z,96645.88
2023-05-15T20:19:59.119Z,96639.78
2023-05-15T20:25:01.897Z,96630.38
2023-05-15T20:29:55.372Z,96624.56
2023-05-15T20:34:50.773Z,96628.84
2023-05-15T20:39:44.231Z,96632.44
2023-05-15T20:44:39.521Z,96631.28
2023-05-15T20:50:04.200Z,96633.13
2023-05-15T20:54:57.597Z,96622.72
2023-05-15T20:59:52.502Z,96618.72
2023-05-15T21:04:48.789Z,96614.72
2023-05-15T21:09:43.987Z,96616.25
2023-05-15T21:14:37.245Z,96621.78
2023-05-15T21:19:31.924Z,96629.09
2023-05-15T21:24:25.323Z,96619.69
2023-05-15T21:29:18.619Z,96613.44
2023-05-15T21:34:12.053Z,96609.16
2023-05-15T21:39:06.759Z,96607.09
2023-05-15T21:44:00.045Z,96600.59
2023-05-15T21:48:53.368Z,96601.84
2023-05-15T21:53:46.674Z,96596.19
2023-05-15T21:58:41.263Z,96588.25
2023-05-15T22:03:34.746Z,96599.88
2023-05-15T22:08:28.093Z,96601.13
2023-05-15T22:13:21.346Z,96600.31
2023-05-15T22:18:15.968Z,96594.63
2023-05-15T22:23:09.261Z,96590.75
2023-05-15T22:28:02.557Z,96595.88
2023-05-15T22:32:56.069Z,96593.66
2023-05-15T22:37:50.764Z,96594.78
2023-05-15T22:42:44.003Z,96593.41
2023-05-15T22:47:37.280Z,96600.19
2023-05-15T22:52:30.651Z,96601.69
2023-05-15T22:57:26.902Z,96596.44
2023-05-15T23:02:20.268Z,96597.00
2023-05-15T23:07:13.686Z,96597.84
2023-05-15T23:12:08.035Z,96588.53
2023-05-15T23:17:02.740Z,96587.31
2023-05-15T23:21:56.162Z,96583.84
2023-05-15T23:26:49.373Z,96579.25
2023-05-15T23:31:43.288Z,96589.78
2023-05-15T23:36:38.081Z,96589.66
2023-05-15T23:41:31.422Z,96589.09
2023-05-15T23:46:24.891Z,96584.66
2023-05-15T23:51:18.285Z,96584.94
2023-05-15T23:56:12.962Z,96584.63
